Ride Results

Red Lion (09-06-2012)
Ride distance: 80.0 km

Outcomes - Red Lion (09-06-2012)
Division No. of Entries Retired / DNE Completed Withdrawn Ineligible V/O Percentage Completed
HW 9 - 9 - - - 100.00%
MW 10 - 10 - - - 100.00%
LW 5 - 4 1 - - 80.00%
JN 3 - 2 - - 1 66.67%
Totals 27 - 25 1 - 1 92.59%
Results - Red Lion (09-06-2012)
No. Rider Horse Place Time Leg Speeds Total
Km/Hr
H/R bpm
Heavyweight
751 Andrew Kettlewell Oso Lee 1 (BC) 5:05:00 16.1, 15.3 15.74 30, 40, 48 (Avg:44)
76 Russell Robinson Jayay Alishah 2 5:10:00 15.5, 15.3 15.48 32, 34, 52 (Avg:43)
65 Carl Adamson Sundown Park Miss Jacob 3 5:41:00 15.5, 12.8 14.08 36, 40, 45 (Avg:42)
308 Melissa Cawthan Taylorsglen Renegade 4 6:00:00 15.2, 11.8 13.33 29, 48, 53 (Avg:50)
115 Rod Mills Pyrenees Kaleb 5 6:37:00 12.4, 11.7 12.09 34, 41, 48 (Avg:44)
754 Julie Lofts Musical Gully Zanadu 6 7:04:00 12.3, 10.4 11.32 43, 38, 41 (Avg:39)
313 Dom Falcomer Clearwinds Encore 7 7:11:00 12.6, 9.9 11.14 33, 47, 50 (Avg:48)
753 Tim Wall Musical Gully Samba 8 7:24:00 12.6, 9.4 10.81 30, 42, 47 (Avg:44)
357 Brooke White Drumlin Shakir 9 7:43:00 11.1, 9.7 10.37 32, 43, 53 (Avg:48)
Middleweight
33 Vanessa Perry Cieanna 1 4:55:00 17.7, 14.9 16.27 27, 46, 47 (Avg:46)
750 Alamdar Dastani Oso Lorikeet 2 (BC) 5:03:00 16.1, 15.5 15.84 27, 46, 43 (Avg:44)
42 Hans Peuker Marybank Celia 3 5:08:00 16.9, 14.4 15.58 36, 42, 42 (Avg:42)
53 Beverley Rayner-Mason Ainslie Ribbon 3 5:08:00 16.9, 14.4 15.58 44, 54, 58 (Avg:56)
56 Wendy Bootle Blue Bopp 5 5:55:00 14.4, 12.6 13.52 39, 43, 45 (Avg:44)
141 Jackie Drayton Clovelly Park Shandara 5 5:55:00 14.4, 12.6 13.52 33, 45, 53 (Avg:49)
160 Jo-Anne Francis Musk Valley Rememberance 7 6:31:00 13.1, 11.5 12.28 38, 41, 43 (Avg:42)
131 Simon Thomas Morundah Just Sharii 7 6:31:00 13.1, 11.5 12.28 29, 41, 47 (Avg:44)
755 Rachael Laidlaw Bushies Luthien 9 6:33:00 12.1, 12.3 12.21 32, 40, 47 (Avg:43)
175 Dianne Leehane Tarara Malone 10 6:37:00 12.4, 11.7 12.09 36, 44, 59 (Avg:51)
Lightweight
743 Kate Gibson Al-Marah Thunder Bay 1 (BC) 5:05:00 16.1, 15.3 15.74 59, 45, 52 (Avg:48)
208 Janeen Smith Pterion Leonardo 2 6:00:00 15.2, 11.8 13.33 33, 44, 46 (Avg:45)
217 Tanya Perry Windradyne Hot Pepper 3 6:35:00 12.6, 11.6 12.15 32, 41, 42 (Avg:41)
61 Lois Sharam Musical Gully Carousel 4 7:04:00 12.3, 10.4 11.32 31, 44, 49 (Avg:46)
151 Kasey Thomas Yalandra Charisma Withdrawn L2 0:00:00 - - 27, 37, 40 (Avg:38)
Junior
748 Lucy Mills Billie 1 6:37:00 12.4, 11.7 12.09 34, 47, 51 (Avg:49)
746 Sarah Camm Webbs Creek Spirit 2 7:43:00 11.1, 9.7 10.37 31, 43, 54 (Avg:48)
148 Stevie-lyn Oborne Bella Heart Rate L1 0:00:00 12.5 - 43, 60 (Avg:60)